Sepulveda, California
Current Conditions -  °F | °C
As of 5:53 AM on Thursday 25 Dec 2014 (Local Time) from KBUR Reporting Station
Clear Clear  
Wind Chill: 11°   Ceiling: Unl
Heat Index: 11°   Visibility: 10mi
Dew Point: -2°   Wind: 14mph
Humidity: 41%   Direction: 310°NW
Pressure: 29.82"   Gusts: 21mph
Location:  34.1618°N, 118.281°W
Report Text: KBUR 251353Z 31012G18KT 10SM CLR 11/M02 A2982 RMK AO2 SLP089 T01111017
Loading
Personal Weather Stations






























Interactive Weather Map New forecast layout! Learn more

10-Day Weather Forecast

Advertisements
Track Severe Weather on mobile